createdAt,value
2022-08-04T00:01:47.787Z,29.52
2022-08-04T00:07:06.200Z,29.49
2022-08-04T00:12:12.724Z,29.52
2022-08-04T00:17:15.202Z,29.53
2022-08-04T00:22:20.845Z,29.53
2022-08-04T00:27:23.148Z,29.55
2022-08-04T00:32:34.098Z,29.58
2022-08-04T00:37:38.794Z,29.57
2022-08-04T00:42:59.311Z,29.57
2022-08-04T00:48:41.662Z,29.57
2022-08-04T00:54:01.934Z,29.61
2022-08-04T00:59:21.973Z,29.59
2022-08-04T01:04:54.651Z,29.56
2022-08-04T01:10:37.775Z,29.54
2022-08-04T01:15:57.135Z,29.50
2022-08-04T01:21:20.563Z,29.59
2022-08-04T01:27:03.979Z,29.55
2022-08-04T01:32:28.153Z,29.59
2022-08-04T01:37:48.030Z,29.58
2022-08-04T01:42:53.462Z,29.57
2022-08-04T01:47:56.518Z,29.62
2022-08-04T01:52:59.038Z,29.60
2022-08-04T01:58:01.339Z,29.59
2022-08-04T02:03:03.220Z,29.60
2022-08-04T02:08:08.043Z,29.59
2022-08-04T02:13:10.216Z,29.61
2022-08-04T02:18:31.441Z,29.60
2022-08-04T02:23:38.349Z,29.59
2022-08-04T02:29:13.920Z,29.55
2022-08-04T02:34:49.799Z,29.56
2022-08-04T02:39:54.639Z,29.61
2022-08-04T02:44:59.496Z,29.57
2022-08-04T02:50:02.859Z,29.58
2022-08-04T02:55:07.203Z,29.54
2022-08-04T03:00:12.590Z,29.55
2022-08-04T03:05:20.048Z,29.59
2022-08-04T03:10:43.545Z,29.57
2022-08-04T03:16:16.088Z,29.57
2022-08-04T03:21:56.844Z,29.56
2022-08-04T03:27:04.521Z,29.61
2022-08-04T03:32:18.384Z,29.53
2022-08-04T03:37:59.013Z,29.53
2022-08-04T03:43:57.113Z,29.63
2022-08-04T03:48:59.434Z,29.57
2022-08-04T03:54:30.874Z,29.55
2022-08-04T03:59:51.357Z,29.54
2022-08-04T04:05:08.244Z,29.59
2022-08-04T04:10:29.080Z,29.61
2022-08-04T04:15:51.311Z,29.52
2022-08-04T04:20:53.052Z,29.55
2022-08-04T04:26:13.311Z,29.44
2022-08-04T04:31:30.109Z,29.49
2022-08-04T04:36:53.078Z,29.46
2022-08-04T04:42:16.693Z,29.46
2022-08-04T04:48:08.610Z,29.44
2022-08-04T04:53:42.918Z,29.39
2022-08-04T04:58:44.878Z,29.41
2022-08-04T05:04:24.121Z,29.44
2022-08-04T05:09:39.560Z,29.45
2022-08-04T05:14:46.684Z,29.44
2022-08-04T05:20:01.959Z,29.43
2022-08-04T05:25:07.567Z,29.44
2022-08-04T05:30:11.110Z,29.41
2022-08-04T05:35:52.066Z,29.43
2022-08-04T05:40:44.063Z,29.48
2022-08-04T05:45:48.890Z,29.51
2022-08-04T05:50:54.032Z,29.49
2022-08-04T05:56:00.538Z,29.51
2022-08-04T06:01:03.320Z,29.54
2022-08-04T06:06:06.860Z,29.55
2022-08-04T06:11:12.230Z,29.56
2022-08-04T06:16:28.574Z,29.53
2022-08-04T06:21:33.071Z,29.48
2022-08-04T06:26:37.003Z,29.51
2022-08-04T06:32:29.979Z,29.52
2022-08-04T06:37:40.740Z,29.55
2022-08-04T06:42:44.502Z,29.50
2022-08-04T06:47:47.933Z,29.52
2022-08-04T06:52:49.914Z,29.56
2022-08-04T06:57:53.071Z,29.55
2022-08-04T07:02:55.297Z,29.63
2022-08-04T07:07:58.810Z,29.56
2022-08-04T07:13:01.865Z,29.71
2022-08-04T07:18:05.031Z,29.66
2022-08-04T07:23:08.122Z,29.65
2022-08-04T07:28:09.907Z,29.51
2022-08-04T07:33:12.678Z,29.50
2022-08-04T07:38:14.546Z,29.59
2022-08-04T07:43:18.466Z,29.57
2022-08-04T07:48:23.130Z,29.56
2022-08-04T07:53:54.714Z,29.61
2022-08-04T07:58:48.252Z,29.63
2022-08-04T08:03:56.620Z,29.58
2022-08-04T08:09:02.135Z,29.55
2022-08-04T08:14:16.336Z,29.63
2022-08-04T08:19:18.171Z,29.70
2022-08-04T08:24:20.291Z,29.57
2022-08-04T08:29:22.578Z,29.62
2022-08-04T08:34:28.039Z,29.57
2022-08-04T08:39:55.335Z,29.56
2022-08-04T08:45:18.428Z,29.54
2022-08-04T08:50:26.108Z,29.55
2022-08-04T08:55:43.336Z,29.58
2022-08-04T09:00:59.022Z,29.58
2022-08-04T09:06:41.248Z,29.55
2022-08-04T09:11:56.297Z,29.79
2022-08-04T09:17:04.061Z,29.76
2022-08-04T09:22:37.294Z,29.66
2022-08-04T09:27:52.484Z,29.65
2022-08-04T09:33:44.684Z,29.60
2022-08-04T09:39:29.701Z,29.57
2022-08-04T09:45:01.464Z,29.74
2022-08-04T09:50:17.902Z,29.63
2022-08-04T09:55:53.747Z,29.61
2022-08-04T10:01:24.487Z,29.55
2022-08-04T10:06:44.698Z,29.58
2022-08-04T10:12:13.269Z,29.73
2022-08-04T10:17:33.646Z,29.82
2022-08-04T10:23:09.560Z,29.70
2022-08-04T10:28:13.846Z,29.72
2022-08-04T10:33:24.740Z,29.84
2022-08-04T10:38:37.625Z,29.88
2022-08-04T10:43:58.690Z,29.80
2022-08-04T10:49:05.587Z,29.67
2022-08-04T10:54:11.618Z,29.69
2022-08-04T10:59:19.478Z,29.68
2022-08-04T11:04:29.642Z,29.71
2022-08-04T11:09:33.810Z,29.74
2022-08-04T11:14:59.811Z,29.69
2022-08-04T11:20:40.164Z,29.87
2022-08-04T11:26:13.033Z,29.76
2022-08-04T11:31:23.073Z,29.73
2022-08-04T11:36:39.874Z,29.71
2022-08-04T11:41:51.349Z,29.69
2022-08-04T11:46:57.342Z,29.67
2022-08-04T11:52:01.388Z,29.64
2022-08-04T11:57:03.455Z,29.68
2022-08-04T12:02:50.946Z,29.63
2022-08-04T12:08:03.481Z,29.72
2022-08-04T12:13:31.916Z,29.70
2022-08-04T12:18:39.612Z,29.63
2022-08-04T12:23:45.424Z,29.71
2022-08-04T12:29:09.471Z,29.75
2022-08-04T12:34:31.052Z,29.78
2022-08-04T12:39:35.731Z,29.66
2022-08-04T12:44:59.581Z,29.72
2022-08-04T12:50:04.338Z,29.77
2022-08-04T12:55:06.673Z,29.78
2022-08-04T13:00:09.701Z,29.82
2022-08-04T13:05:17.035Z,29.86
2022-08-04T13:10:22.388Z,29.75
2022-08-04T13:20:57.206Z,29.78
2022-08-04T13:26:44.300Z,29.73
2022-08-04T13:30:23.936Z,29.77
2022-08-04T13:31:24.054Z,29.79
2022-08-04T13:36:27.015Z,29.70
2022-08-04T13:41:31.365Z,29.76
2022-08-04T13:46:40.783Z,29.82
2022-08-04T13:51:58.423Z,29.79
2022-08-04T13:57:02.629Z,29.88
2022-08-04T14:02:23.984Z,29.91
2022-08-04T14:07:28.060Z,29.96
2022-08-04T14:12:38.175Z,29.88
2022-08-04T14:17:47.047Z,29.84
2022-08-04T14:22:48.870Z,29.86
2022-08-04T14:27:54.000Z,29.77
2022-08-04T14:34:02.283Z,29.71
2022-08-04T14:39:01.961Z,29.72
2022-08-04T14:44:04.590Z,29.78
2022-08-04T14:49:12.309Z,29.83
2022-08-04T14:54:18.425Z,29.80
2022-08-04T14:59:21.620Z,29.94
2022-08-04T15:04:25.885Z,29.90
2022-08-04T15:09:28.546Z,29.85
2022-08-04T15:14:37.811Z,29.88
2022-08-04T15:19:40.493Z,29.97
2022-08-04T15:24:57.729Z,29.96
2022-08-04T15:30:06.041Z,29.87
2022-08-04T15:35:13.689Z,29.84
2022-08-04T15:40:32.772Z,29.93
2022-08-04T15:46:04.060Z,29.93
2022-08-04T15:51:30.501Z,29.86
2022-08-04T15:56:37.222Z,29.97
2022-08-04T16:01:39.224Z,29.90
2022-08-04T16:06:42.641Z,29.92
2022-08-04T16:11:44.516Z,29.93
2022-08-04T16:16:51.398Z,29.96
2022-08-04T16:21:56.285Z,29.86
2022-08-04T16:27:11.796Z,29.89
2022-08-04T16:32:13.691Z,29.93
2022-08-04T16:37:16.965Z,29.93
2022-08-04T16:42:28.336Z,29.93
2022-08-04T16:47:48.366Z,29.95
2022-08-04T16:52:55.680Z,29.94
2022-08-04T16:58:01.618Z,29.92
2022-08-04T17:03:05.851Z,30.07
2022-08-04T17:14:02.090Z,30.01
2022-08-04T17:18:59.330Z,29.91
2022-08-04T17:24:16.401Z,29.95
2022-08-04T17:29:19.986Z,29.93
2022-08-04T17:34:26.397Z,29.93
2022-08-04T17:39:31.214Z,30.02
2022-08-04T17:44:40.695Z,30.00
2022-08-04T17:49:52.659Z,30.01
2022-08-04T17:55:04.153Z,29.95
2022-08-04T18:00:06.644Z,29.99
2022-08-04T18:05:11.927Z,29.99
2022-08-04T18:10:30.601Z,29.99
2022-08-04T18:15:44.132Z,29.92
2022-08-04T18:20:50.006Z,29.97
2022-08-04T18:25:52.396Z,29.99
2022-08-04T18:30:55.288Z,30.04
2022-08-04T18:36:32.923Z,30.00
2022-08-04T18:41:20.444Z,30.07
2022-08-04T18:46:23.122Z,30.06
2022-08-04T18:51:31.143Z,30.02
2022-08-04T18:56:34.043Z,30.08
2022-08-04T19:02:12.554Z,29.97
2022-08-04T19:07:24.489Z,30.02
2022-08-04T19:12:27.103Z,30.01
2022-08-04T19:17:54.013Z,29.99
2022-08-04T19:24:11.073Z,30.04
2022-08-04T19:28:17.258Z,30.03
2022-08-04T19:33:24.992Z,29.95
2022-08-04T19:38:27.428Z,29.98
2022-08-04T19:43:32.694Z,29.90
2022-08-04T19:48:35.288Z,29.76
2022-08-04T19:53:43.202Z,29.71
2022-08-04T19:58:48.088Z,29.78
2022-08-04T20:04:09.836Z,29.74
2022-08-04T20:09:26.208Z,29.87
2022-08-04T20:14:32.497Z,29.96
2022-08-04T20:19:35.457Z,29.85
2022-08-04T20:24:45.912Z,29.79
2022-08-04T20:29:55.415Z,29.87
2022-08-04T20:34:58.926Z,29.94
2022-08-04T20:40:02.492Z,29.99
2022-08-04T20:45:07.686Z,29.92
2022-08-04T20:50:18.500Z,29.96
2022-08-04T20:55:31.989Z,29.95
2022-08-04T21:00:53.144Z,29.94
2022-08-04T21:05:56.868Z,29.96
2022-08-04T21:10:58.745Z,29.89
2022-08-04T21:16:02.332Z,29.93
2022-08-04T21:21:06.361Z,29.92
2022-08-04T21:26:10.944Z,29.88
2022-08-04T21:31:21.963Z,29.82
2022-08-04T21:36:27.442Z,29.86
2022-08-04T21:41:29.519Z,29.79
2022-08-04T21:46:35.735Z,29.88
2022-08-04T21:51:59.645Z,29.77
2022-08-04T21:57:03.289Z,29.85
2022-08-04T22:02:05.665Z,29.81
2022-08-04T22:07:09.748Z,29.77
2022-08-04T22:12:12.518Z,29.84
2022-08-04T22:17:24.279Z,29.84
2022-08-04T22:22:29.600Z,29.72
2022-08-04T22:27:55.280Z,29.76
2022-08-04T22:32:57.246Z,29.78
2022-08-04T22:38:06.302Z,29.78
2022-08-04T22:43:33.610Z,29.73
2022-08-04T22:48:35.873Z,29.73
2022-08-04T22:53:37.631Z,29.71
2022-08-04T22:58:51.282Z,29.74
2022-08-04T23:03:55.884Z,29.74
2022-08-04T23:08:59.330Z,29.75
2022-08-04T23:14:01.341Z,29.75
2022-08-04T23:19:09.508Z,29.68
2022-08-04T23:24:12.201Z,29.68
2022-08-04T23:29:15.301Z,29.69
2022-08-04T23:34:18.813Z,29.73
2022-08-04T23:39:20.975Z,29.64
2022-08-04T23:44:26.844Z,29.77
2022-08-04T23:49:43.440Z,29.74
2022-08-04T23:54:47.356Z,29.73
2022-08-04T23:59:54.378Z,29.75
